KTHV

York Airport

York, Pennsylvania, USA
METAR KTHV 191253Z AUTO 00000KT 10SM CLR M06/M07 A3017 RMK AO2 SLP224 I1000 T10561067
Observed Flight Rules
Dec-19 @ 12:53 UTC (46 minutes ago) Visual Flight Rules
Visibility Clouds
10 miles
  • Clear skies
Temperatures Readings
Current -6°C / 21°F
Dewpoint -7°C / 19°F
Humidity 93%
Altimeter 30.17" Hg
Pressure 1022.4 hPa
Elevation 144
METAR KTHV 191253Z AUTO 00000KT 10SM CLR M06/M07 A3017 RMK AO2 SLP224 I1000 T10561067
Observed Flight Rules
Dec-19 @ 12:53 UTC
(46 minutes ago)
VFR
Clouds
  • Clear skies
Temperature Dewpoint
-6°C / 21°F -7°C / 19°F
Humidity Altimeter Pressure
93% 30.17" Hg 1022.4 hPa